Time;durP1;ratioP1;P1;durP2;ratioP2;P2;SDS_P1;SDS_P2;PMS_P1;PMS_P2;Temp;Humidity;BMP_temperature;BMP_pressure;BME280_temperature;BME280_humidity;BME280_pressure;Samples;Min_cycle;Max_cycle;Signal;HPM_P1;HPM_P2
2023/01/20 00:01:19;;;;;;;42.20;23.45;;;3.30;99.90;;;;;;5056844;28;20053;-58
2023/01/20 00:03:46;;;;;;;48.53;23.83;;;3.20;99.90;;;;;;5056671;28;20033;-58
2023/01/20 00:06:13;;;;;;;27.42;17.40;;;3.20;99.90;;;;;;5056682;28;20032;-58
2023/01/20 00:08:39;;;;;;;38.72;20.73;;;3.10;99.90;;;;;;5056654;28;20110;-58
2023/01/20 00:11:08;;;;;;;54.92;30.95;;;3.20;99.90;;;;;;5056589;28;20049;-58
2023/01/20 00:13:37;;;;;;;51.60;31.20;;;3.30;99.90;;;;;;5056563;28;20032;-58
2023/01/20 00:16:08;;;;;;;42.47;27.25;;;3.20;99.90;;;;;;5056616;28;20081;-58
2023/01/20 00:18:34;;;;;;;50.53;31.38;;;3.20;99.90;;;;;;5056314;28;20063;-58
2023/01/20 00:21:07;;;;;;;60.90;35.88;;;3.00;99.90;;;;;;5056439;28;20037;-58
2023/01/20 00:23:34;;;;;;;46.17;27.75;;;2.90;99.90;;;;;;5056474;28;20021;-58
2023/01/20 00:26:04;;;;;;;33.92;19.88;;;2.90;99.90;;;;;;5056340;28;20031;-58
2023/01/20 00:28:30;;;;;;;31.75;17.83;;;2.70;99.90;;;;;;5056411;28;20025;-58
2023/01/20 00:30:56;;;;;;;32.00;18.92;;;2.80;99.90;;;;;;5056236;28;20021;-58
2023/01/20 00:33:22;;;;;;;28.67;16.90;;;2.90;99.90;;;;;;5056281;28;20116;-58
2023/01/20 00:35:48;;;;;;;24.70;16.40;;;2.80;99.90;;;;;;5056142;28;20467;-58
2023/01/20 00:38:14;;;;;;;31.95;17.90;;;2.90;99.90;;;;;;5056051;28;20123;-58
2023/01/20 00:40:40;;;;;;;24.05;15.30;;;2.90;99.90;;;;;;5056121;28;20103;-58
2023/01/20 00:43:06;;;;;;;23.55;15.68;;;3.00;99.90;;;;;;5056206;28;20057;-58
2023/01/20 00:45:32;;;;;;;31.30;18.88;;;2.90;99.90;;;;;;5055895;28;20089;-58
2023/01/20 00:47:58;;;;;;;57.92;33.85;;;3.00;99.90;;;;;;5056078;28;20017;-58
2023/01/20 00:50:24;;;;;;;33.90;21.45;;;2.80;99.90;;;;;;5055894;28;20021;-58
2023/01/20 00:52:50;;;;;;;37.20;20.17;;;2.80;99.90;;;;;;5055792;28;20032;-58
2023/01/20 00:55:16;;;;;;;30.77;18.52;;;2.70;99.90;;;;;;5055918;28;20344;-58
2023/01/20 00:57:42;;;;;;;39.22;19.58;;;2.70;99.90;;;;;;5055723;28;20068;-58
2023/01/20 01:00:08;;;;;;;43.17;24.73;;;2.60;99.90;;;;;;5055560;28;20146;-58
2023/01/20 01:02:38;;;;;;;42.60;23.05;;;2.50;99.90;;;;;;5055362;28;20031;-58
2023/01/20 01:05:05;;;;;;;47.38;25.38;;;2.40;99.90;;;;;;5055607;28;20028;-58
2023/01/20 01:07:31;;;;;;;39.17;22.25;;;2.40;99.90;;;;;;5055540;28;20494;-58
2023/01/20 01:09:56;;;;;;;36.35;22.15;;;2.40;99.90;;;;;;5060734;28;20058;-58
2023/01/20 01:12:23;;;;;;;40.97;23.52;;;2.30;99.90;;;;;;5075410;28;20056;-58
2023/01/20 01:14:48;;;;;;;38.72;22.35;;;2.30;99.90;;;;;;5075302;28;20444;-58
2023/01/20 01:17:14;;;;;;;41.70;25.30;;;2.40;99.90;;;;;;5075253;28;20032;-58
2023/01/20 01:19:40;;;;;;;40.05;23.75;;;2.30;99.90;;;;;;5075411;28;20535;-58
2023/01/20 01:22:06;;;;;;;44.40;26.35;;;2.30;99.90;;;;;;5075290;28;20028;-58
2023/01/20 01:24:32;;;;;;;41.53;26.15;;;2.20;99.90;;;;;;5075241;28;20024;-58
2023/01/20 01:26:58;;;;;;;39.60;24.83;;;2.10;99.90;;;;;;5075229;28;20033;-58
2023/01/20 01:29:24;;;;;;;43.55;25.13;;;2.10;99.90;;;;;;5075130;28;20028;-58
2023/01/20 01:31:50;;;;;;;44.50;24.60;;;2.30;99.90;;;;;;5059706;28;20179;-58
2023/01/20 01:34:16;;;;;;;52.00;30.13;;;2.30;99.90;;;;;;5056877;28;20464;-58
2023/01/20 01:36:42;;;;;;;54.90;29.23;;;2.30;99.90;;;;;;5068201;28;20029;-58
2023/01/20 01:39:08;;;;;;;49.50;26.83;;;2.40;99.90;;;;;;5074940;28;20032;-58
2023/01/20 01:41:34;;;;;;;43.65;23.52;;;2.40;99.90;;;;;;5034870;28;20025;-58
2023/01/20 01:44:07;;;;;;;45.92;24.98;;;2.40;99.90;;;;;;5033815;28;20438;-58
2023/01/20 01:46:33;;;;;;;41.40;23.13;;;2.30;99.90;;;;;;5034813;28;20065;-58
2023/01/20 01:49:27;;;;;;;42.15;23.48;;;2.20;99.90;;;;;;5034869;28;20025;-58
2023/01/20 01:52:01;;;;;;;38.83;22.92;;;2.20;99.90;;;;;;5042824;28;20046;-58
2023/01/20 01:54:33;;;;;;;37.17;24.55;;;2.20;99.90;;;;;;5074571;28;20486;-58
2023/01/20 01:57:00;;;;;;;46.35;27.70;;;2.10;99.90;;;;;;5074766;28;20106;-58
2023/01/20 01:59:26;;;;;;;49.72;29.05;;;2.20;99.90;;;;;;5074889;28;20035;-58
2023/01/20 02:01:53;;;;;;;56.25;33.55;;;2.10;99.90;;;;;;5074704;28;20082;-58
2023/01/20 02:04:22;;;;;;;60.70;35.65;;;2.10;99.90;;;;;;5074585;28;20082;-58
2023/01/20 02:06:59;;;;;;;63.47;35.70;;;2.10;99.90;;;;;;5074552;28;20024;-58
2023/01/20 02:09:26;;;;;;;70.93;35.95;;;2.00;99.90;;;;;;5074452;28;20025;-58
2023/01/20 02:11:59;;;;;;;56.30;30.67;;;2.00;99.90;;;;;;5074179;28;20036;-58
2023/01/20 02:14:32;;;;;;;55.08;32.13;;;2.00;99.90;;;;;;5074496;28;20088;-58
2023/01/20 02:17:11;;;;;;;51.15;30.15;;;2.20;99.90;;;;;;5074383;28;20032;-58
2023/01/20 02:20:10;;;;;;;53.20;29.70;;;2.40;99.90;;;;;;5074545;28;20077;-58
2023/01/20 02:22:48;;;;;;;48.92;27.83;;;2.10;99.90;;;;;;5074472;28;20059;-58
2023/01/20 02:25:43;;;;;;;63.20;32.88;;;2.10;99.90;;;;;;5074555;28;20029;-58
2023/01/20 02:28:28;;;;;;;55.47;31.48;;;2.10;99.90;;;;;;5071900;28;20054;-58
2023/01/20 02:30:56;;;;;;;47.38;27.35;;;2.00;99.90;;;;;;5054340;28;20036;-58
2023/01/20 02:33:28;;;;;;;53.97;30.63;;;2.00;99.90;;;;;;5054305;28;20438;-58
2023/01/20 02:36:01;;;;;;;56.10;30.58;;;2.00;99.90;;;;;;5054290;28;20025;-58
2023/01/20 02:38:45;;;;;;;64.85;32.63;;;2.20;99.90;;;;;;5054252;28;20021;-58
2023/01/20 02:41:53;;;;;;;62.97;33.20;;;2.10;99.90;;;;;;5054108;28;20071;-58
2023/01/20 02:44:21;;;;;;;59.53;31.63;;;2.10;99.90;;;;;;5036555;28;20570;-58
2023/01/20 02:46:57;;;;;;;66.10;33.97;;;2.10;99.90;;;;;;5054319;28;20036;-58
2023/01/20 02:49:33;;;;;;;56.90;33.15;;;2.10;99.90;;;;;;5054181;28;20048;-58
2023/01/20 02:52:19;;;;;;;56.95;31.48;;;2.00;99.90;;;;;;5054099;28;20033;-58
2023/01/20 02:54:51;;;;;;;64.90;33.50;;;2.10;99.90;;;;;;5053990;28;20029;-58
2023/01/20 02:57:24;;;;;;;60.25;31.85;;;2.10;99.90;;;;;;5054051;28;20037;-58
2023/01/20 02:59:54;;;;;;;62.08;35.25;;;2.10;99.90;;;;;;5054035;28;20391;-58
2023/01/20 03:02:24;;;;;;;64.63;35.60;;;2.20;99.90;;;;;;5054127;28;20443;-58
2023/01/20 03:05:03;;;;;;;64.22;35.00;;;2.30;99.90;;;;;;5053737;28;20107;-58
2023/01/20 03:07:31;;;;;;;70.05;37.20;;;2.30;99.90;;;;;;5053899;28;20064;-58
2023/01/20 03:10:00;;;;;;;80.05;38.15;;;2.10;99.90;;;;;;5053866;28;20040;-58
2023/01/20 03:12:57;;;;;;;79.88;37.67;;;2.20;99.90;;;;;;5053930;28;20025;-58
2023/01/20 03:15:40;;;;;;;74.95;37.50;;;2.30;99.90;;;;;;5053877;28;20028;-58
2023/01/20 03:18:06;;;;;;;87.20;41.95;;;2.30;99.90;;;;;;5053767;28;20040;-58
2023/01/20 03:20:32;;;;;;;95.05;43.70;;;2.30;99.90;;;;;;5053737;28;20033;-58
2023/01/20 03:22:58;;;;;;;88.93;41.47;;;2.20;99.90;;;;;;5057122;28;20108;-58
2023/01/20 03:25:25;;;;;;;82.88;39.00;;;2.20;99.90;;;;;;5057688;28;20059;-58
2023/01/20 03:27:51;;;;;;;90.78;40.80;;;2.20;99.90;;;;;;5057401;28;20382;-58
2023/01/20 03:30:17;;;;;;;95.53;44.05;;;2.10;99.90;;;;;;5057514;28;20028;-58
2023/01/20 03:32:46;;;;;;;115.88;49.65;;;2.10;99.90;;;;;;5057706;28;20478;-58
2023/01/20 03:35:16;;;;;;;110.13;49.25;;;2.10;99.90;;;;;;5057474;28;20040;-58
2023/01/20 03:37:43;;;;;;;111.05;47.40;;;2.10;99.90;;;;;;5057520;28;20032;-58
2023/01/20 03:40:10;;;;;;;117.60;49.72;;;2.10;99.90;;;;;;5057259;28;20033;-58
2023/01/20 03:42:58;;;;;;;127.40;49.90;;;2.10;99.90;;;;;;5057097;28;20017;-58
2023/01/20 03:45:48;;;;;;;109.75;47.75;;;2.10;99.90;;;;;;5057613;28;20108;-58
2023/01/20 03:48:39;;;;;;;104.72;45.10;;;2.20;99.90;;;;;;5057088;28;20063;-57
2023/01/20 03:51:24;;;;;;;102.00;45.03;;;2.10;99.90;;;;;;5057401;28;20028;-58
2023/01/20 03:54:14;;;;;;;123.18;50.40;;;2.10;99.90;;;;;;5057225;28;20106;-58
2023/01/20 03:56:55;;;;;;;98.10;45.42;;;2.00;99.90;;;;;;5057206;28;20375;-58
2023/01/20 03:59:22;;;;;;;103.25;44.00;;;2.00;99.90;;;;;;5056952;28;20048;-58
2023/01/20 04:01:48;;;;;;;102.13;44.55;;;2.00;99.90;;;;;;5056952;28;20028;-58
2023/01/20 04:04:17;;;;;;;114.80;49.13;;;2.00;99.90;;;;;;5056840;28;20025;-58
2023/01/20 04:06:44;;;;;;;121.00;51.03;;;2.10;99.90;;;;;;5056676;28;20020;-58
2023/01/20 04:09:16;;;;;;;121.60;51.63;;;2.00;99.90;;;;;;5056855;28;20155;-57
2023/01/20 04:11:42;;;;;;;101.50;46.03;;;2.00;99.90;;;;;;5076335;28;20131;-58
2023/01/20 04:14:08;;;;;;;106.47;46.33;;;2.10;99.90;;;;;;5076918;28;20063;-58
2023/01/20 04:16:35;;;;;;;93.45;43.50;;;2.20;99.90;;;;;;5076425;28;20035;-57
2023/01/20 04:19:01;;;;;;;100.20;45.30;;;2.20;99.90;;;;;;5076618;28;20409;-58
2023/01/20 04:21:44;;;;;;;88.45;43.35;;;2.20;99.90;;;;;;5076773;28;20393;-58
2023/01/20 04:24:23;;;;;;;61.35;27.58;;;2.20;99.90;;;;;;5076490;28;20021;-58
2023/01/20 04:26:49;;;;;;;66.70;32.33;;;2.20;99.90;;;;;;5076552;28;20074;-57
2023/01/20 04:29:15;;;;;;;54.28;28.33;;;2.20;99.90;;;;;;5064633;28;20479;-58
2023/01/20 04:31:41;;;;;;;57.08;27.70;;;2.20;99.90;;;;;;5056465;28;20036;-57
2023/01/20 04:34:11;;;;;;;60.05;28.33;;;2.20;99.90;;;;;;5055879;28;20029;-58
2023/01/20 04:36:37;;;;;;;55.05;28.35;;;2.20;99.90;;;;;;5056235;28;20033;-58
2023/01/20 04:39:03;;;;;;;50.65;26.00;;;2.10;99.90;;;;;;5056205;28;20108;-58
2023/01/20 04:41:29;;;;;;;48.88;25.10;;;2.20;99.90;;;;;;5056084;28;20466;-58
2023/01/20 04:43:55;;;;;;;49.78;24.10;;;2.20;99.90;;;;;;5056261;28;20108;-58
2023/01/20 04:46:21;;;;;;;51.35;26.42;;;2.20;99.90;;;;;;5056090;28;20083;-57
2023/01/20 04:48:47;;;;;;;48.00;24.23;;;2.30;99.90;;;;;;5056047;28;20063;-58
2023/01/20 04:51:13;;;;;;;38.13;20.98;;;2.20;99.90;;;;;;5055919;28;20029;-57
2023/01/20 04:53:40;;;;;;;40.63;21.42;;;2.20;99.90;;;;;;5055941;28;20025;-58
2023/01/20 04:56:13;;;;;;;38.38;19.95;;;2.30;99.90;;;;;;5055905;28;20498;-57
2023/01/20 04:58:40;;;;;;;40.95;22.67;;;2.40;99.90;;;;;;5055711;28;20036;-57
2023/01/20 05:01:05;;;;;;;33.85;20.25;;;2.40;99.90;;;;;;5055852;28;20098;-58
2023/01/20 05:03:32;;;;;;;32.50;19.02;;;2.30;99.90;;;;;;5055620;28;20083;-58
2023/01/20 05:05:58;;;;;;;31.15;18.95;;;2.30;99.90;;;;;;5055405;28;20517;-58
2023/01/20 05:08:24;;;;;;;28.10;17.05;;;2.30;99.90;;;;;;5055908;28;20040;-58
2023/01/20 05:10:50;;;;;;;26.27;16.33;;;2.30;99.90;;;;;;5055537;28;20052;-58
2023/01/20 05:13:16;;;;;;;31.83;17.85;;;2.30;99.90;;;;;;5055543;28;20021;-57
2023/01/20 05:15:43;;;;;;;28.73;16.08;;;2.30;99.90;;;;;;5055657;28;20032;-58
2023/01/20 05:18:09;;;;;;;24.98;16.88;;;2.40;99.90;;;;;;5055341;28;20394;-58
2023/01/20 05:20:35;;;;;;;29.42;17.10;;;2.40;99.90;;;;;;5055225;28;20028;-58
2023/01/20 05:23:01;;;;;;;35.47;19.38;;;2.30;99.90;;;;;;5055454;28;20387;-58
2023/01/20 05:25:27;;;;;;;48.42;25.42;;;2.30;99.90;;;;;;5055408;28;20051;-58
2023/01/20 05:27:53;;;;;;;54.22;27.40;;;2.30;99.90;;;;;;5055065;28;20108;-58
2023/01/20 05:30:19;;;;;;;48.83;27.48;;;2.40;99.90;;;;;;5055120;28;20044;-58
2023/01/20 05:32:48;;;;;;;48.50;25.73;;;2.40;99.90;;;;;;5055368;28;20048;-58
2023/01/20 05:35:14;;;;;;;48.85;27.10;;;2.30;99.90;;;;;;5054875;28;20539;-58
2023/01/20 05:37:40;;;;;;;36.35;18.98;;;2.30;99.90;;;;;;5055312;28;20104;-57
2023/01/20 05:40:06;;;;;;;35.05;19.65;;;2.30;99.90;;;;;;5055102;28;20382;-58
2023/01/20 05:42:32;;;;;;;35.85;20.20;;;2.40;99.90;;;;;;5054582;28;20115;-57
2023/01/20 05:44:58;;;;;;;32.05;15.88;;;2.40;99.90;;;;;;5054285;28;20091;-58
2023/01/20 05:47:24;;;;;;;38.03;18.90;;;2.40;99.90;;;;;;5055093;28;20100;-58
2023/01/20 05:49:50;;;;;;;35.00;23.30;;;2.20;99.90;;;;;;5054753;28;20187;-58
2023/01/20 05:52:16;;;;;;;37.92;23.95;;;2.20;99.90;;;;;;5054853;28;20049;-58
2023/01/20 05:54:41;;;;;;;33.90;21.10;;;2.10;99.90;;;;;;5054723;28;20052;-57
2023/01/20 05:57:07;;;;;;;37.05;19.67;;;2.20;99.90;;;;;;5054811;28;20114;-58
2023/01/20 05:59:33;;;;;;;32.58;18.63;;;2.20;99.90;;;;;;5054644;28;20029;-58
2023/01/20 06:01:59;;;;;;;32.72;18.77;;;2.20;99.90;;;;;;5054567;28;20033;-58
2023/01/20 06:04:25;;;;;;;33.67;18.85;;;2.30;99.90;;;;;;5054465;28;20025;-58
2023/01/20 06:06:51;;;;;;;36.28;19.77;;;2.30;99.90;;;;;;5054557;28;20060;-58
2023/01/20 06:09:17;;;;;;;35.65;21.27;;;2.20;99.90;;;;;;5054478;28;20033;-58
2023/01/20 06:11:43;;;;;;;42.58;24.20;;;2.20;99.90;;;;;;5074312;28;20409;-58
2023/01/20 06:14:09;;;;;;;46.65;23.05;;;2.40;99.90;;;;;;5074493;28;20459;-57
2023/01/20 06:16:35;;;;;;;40.50;21.95;;;2.50;99.90;;;;;;5073992;28;20177;-58
2023/01/20 06:19:01;;;;;;;33.30;20.45;;;2.40;99.90;;;;;;5074384;28;20048;-58
2023/01/20 06:21:27;;;;;;;47.55;24.95;;;2.40;99.90;;;;;;5074444;28;20039;-58
2023/01/20 06:23:53;;;;;;;39.85;23.08;;;2.40;99.90;;;;;;5065286;28;20033;-58
2023/01/20 06:26:19;;;;;;;41.40;24.10;;;2.40;99.90;;;;;;5034151;28;20033;-58
2023/01/20 06:28:45;;;;;;;44.08;25.70;;;2.30;99.90;;;;;;5034070;28;20399;-58
2023/01/20 06:31:14;;;;;;;64.93;32.20;;;2.30;99.90;;;;;;5044384;28;20036;-58
2023/01/20 06:33:40;;;;;;;43.30;22.35;;;2.20;99.90;;;;;;5055421;28;20068;-58
2023/01/20 06:36:07;;;;;;;47.10;22.80;;;2.40;99.90;;;;;;5054214;28;20059;-58
2023/01/20 06:38:34;;;;;;;48.45;25.52;;;2.40;99.90;;;;;;5061989;28;20474;-58
2023/01/20 06:41:03;;;;;;;45.15;22.45;;;2.30;99.90;;;;;;5057747;28;20094;-58
2023/01/20 06:43:30;;;;;;;34.85;19.75;;;2.30;99.90;;;;;;5066579;28;20028;-57
2023/01/20 06:46:02;;;;;;;44.15;22.85;;;2.30;99.90;;;;;;5042528;28;20465;-58
2023/01/20 06:48:28;;;;;;;;;;;2.30;99.90;;;;;;5060735;28;20025;-58
2023/01/20 06:51:00;;;;;;;33.50;16.20;;;2.20;99.90;;;;;;5074110;28;19909;-58
2023/01/20 06:53:26;;;;;;;37.22;16.58;;;2.20;99.90;;;;;;5073540;28;20393;-58
2023/01/20 06:55:56;;;;;;;37.05;17.50;;;2.10;99.90;;;;;;5073973;28;20111;-58
2023/01/20 06:58:28;;;;;;;25.90;16.42;;;2.00;99.90;;;;;;5077737;28;20077;-58
2023/01/20 07:00:55;;;;;;;29.67;15.70;;;2.10;99.90;;;;;;5076912;28;20024;-58
2023/01/20 07:03:23;;;;;;;37.63;18.30;;;2.20;99.90;;;;;;5056428;28;20522;-58
2023/01/20 07:05:58;;;;;;;38.63;17.95;;;2.30;99.90;;;;;;5053673;28;20093;-58
2023/01/20 07:08:25;;;;;;;30.35;15.70;;;2.30;99.90;;;;;;5057718;28;20059;-58
2023/01/20 07:10:51;;;;;;;28.77;14.75;;;2.30;99.90;;;;;;5057278;28;20041;-58
2023/01/20 07:13:16;;;;;;;31.63;17.42;;;2.30;99.90;;;;;;5057708;28;20103;-58
2023/01/20 07:15:43;;;;;;;34.55;19.92;;;2.40;99.90;;;;;;5055444;28;20017;-58
2023/01/20 07:18:09;;;;;;;33.90;16.80;;;2.30;99.90;;;;;;5044642;28;20026;-58
2023/01/20 07:20:35;;;;;;;35.38;20.13;;;2.40;99.90;;;;;;5050178;28;20052;-58
2023/01/20 07:23:01;;;;;;;45.38;25.15;;;2.40;99.90;;;;;;5062528;28;20041;-58
2023/01/20 07:25:27;;;;;;;50.30;23.35;;;2.30;99.90;;;;;;5075729;28;20024;-58
2023/01/20 07:27:53;;;;;;;52.67;26.52;;;2.30;99.90;;;;;;5074413;28;20417;-57
2023/01/20 07:30:19;;;;;;;49.17;27.05;;;2.30;99.90;;;;;;5056700;28;20033;-57
2023/01/20 07:32:45;;;;;;;65.45;27.98;;;2.30;99.90;;;;;;5057255;28;20040;-57
2023/01/20 07:35:11;;;;;;;68.30;31.33;;;2.50;99.90;;;;;;5057168;28;20084;-57
2023/01/20 07:37:37;;;;;;;34.20;19.98;;;2.40;99.90;;;;;;5056805;28;20506;-57
2023/01/20 07:40:03;;;;;;;30.42;17.92;;;2.40;99.90;;;;;;5062046;28;20119;-58
2023/01/20 07:42:29;;;;;;;30.20;18.02;;;2.40;99.90;;;;;;5062236;28;20038;-58
2023/01/20 07:44:58;;;;;;;33.28;17.92;;;2.40;99.90;;;;;;5055972;28;20100;-58
2023/01/20 07:47:24;;;;;;;33.22;17.98;;;2.60;99.90;;;;;;5056702;28;20021;-58
2023/01/20 07:49:50;;;;;;;33.78;18.55;;;2.50;99.90;;;;;;5055797;28;20478;-58
2023/01/20 07:52:16;;;;;;;39.45;23.48;;;2.50;99.90;;;;;;5055961;28;20064;-58
2023/01/20 07:54:45;;;;;;;34.30;20.67;;;2.50;99.90;;;;;;5054644;28;20029;-58
2023/01/20 07:57:11;;;;;;;35.90;20.50;;;2.40;99.90;;;;;;5028699;28;20037;-58
2023/01/20 07:59:37;;;;;;;34.50;18.27;;;2.40;99.90;;;;;;5028158;28;20032;-58
2023/01/20 08:02:03;;;;;;;30.92;17.45;;;2.60;99.90;;;;;;5027627;28;20564;-58
2023/01/20 08:04:29;;;;;;;25.88;15.75;;;2.50;99.90;;;;;;5026997;28;20116;-58
2023/01/20 08:06:54;;;;;;;52.08;26.60;;;2.60;99.90;;;;;;5027714;28;20025;-58
2023/01/20 08:09:20;;;;;;;73.15;34.13;;;2.60;99.90;;;;;;5039753;28;20029;-59
2023/01/20 08:11:47;;;;;;;62.78;29.58;;;2.60;99.90;;;;;;5046160;28;20505;-58
2023/01/20 08:14:13;;;;;;;107.38;43.42;;;2.70;99.90;;;;;;5046511;28;20542;-58
2023/01/20 08:16:38;;;;;;;56.80;28.35;;;2.60;99.90;;;;;;5040935;28;20131;-58
2023/01/20 08:19:04;;;;;;;36.42;19.83;;;2.60;99.90;;;;;;5025693;28;20043;-58
2023/01/20 08:21:31;;;;;;;32.50;19.42;;;2.60;99.90;;;;;;5029158;28;20048;-58
2023/01/20 08:23:59;;;;;;;29.67;17.02;;;2.60;99.90;;;;;;5036338;28;20024;-58
2023/01/20 08:26:28;;;;;;;31.88;19.13;;;2.60;99.90;;;;;;5034358;28;20713;-58
2023/01/20 08:28:55;;;;;;;25.23;16.67;;;2.60;99.90;;;;;;5030616;28;20139;-58
2023/01/20 08:31:23;;;;;;;36.25;19.55;;;2.60;99.90;;;;;;5041240;28;20025;-58
2023/01/20 08:33:56;;;;;;;26.40;15.77;;;2.60;99.90;;;;;;5047633;28;20574;-58
2023/01/20 08:36:29;;;;;;;32.38;19.35;;;2.50;99.90;;;;;;5042546;28;20032;-58
2023/01/20 08:38:56;;;;;;;34.10;18.40;;;2.60;99.90;;;;;;5039183;28;20415;-58
2023/01/20 08:41:31;;;;;;;30.48;18.52;;;2.60;99.90;;;;;;5032526;28;20184;-58
2023/01/20 08:43:59;;;;;;;38.08;19.98;;;2.60;99.90;;;;;;5033115;28;20525;-58
2023/01/20 08:46:25;;;;;;;35.92;19.77;;;2.70;99.90;;;;;;5039195;28;20100;-58
2023/01/20 08:48:53;;;;;;;40.22;21.35;;;2.70;99.90;;;;;;5051598;28;20144;-58
2023/01/20 08:51:26;;;;;;;41.97;22.67;;;2.80;99.90;;;;;;5027989;28;20115;-58
2023/01/20 08:53:54;;;;;;;46.53;23.48;;;2.70;99.90;;;;;;5032699;28;20048;-58
2023/01/20 08:56:21;;;;;;;38.15;21.02;;;2.60;99.90;;;;;;5029229;28;20067;-58
2023/01/20 08:58:47;;;;;;;38.72;20.00;;;2.80;99.90;;;;;;5026169;28;20500;-58
2023/01/20 09:01:20;;;;;;;33.03;18.85;;;2.80;99.90;;;;;;5022189;28;20021;-58
2023/01/20 09:03:46;;;;;;;31.85;19.80;;;2.90;99.90;;;;;;5031182;28;20082;-58
2023/01/20 09:06:13;;;;;;;32.88;19.70;;;3.00;99.90;;;;;;5028454;28;20013;-58
2023/01/20 09:08:39;;;;;;;31.10;18.33;;;3.00;99.90;;;;;;5030492;28;21047;-58
2023/01/20 09:11:14;;;;;;;36.13;19.60;;;3.20;99.90;;;;;;5031241;28;20064;-58
2023/01/20 09:13:40;;;;;;;34.40;18.48;;;3.20;99.90;;;;;;5025577;28;20395;-58
2023/01/20 09:16:08;;;;;;;32.88;18.92;;;3.30;99.90;;;;;;5027676;28;20033;-58
2023/01/20 09:18:34;;;;;;;32.30;19.48;;;3.20;99.90;;;;;;5026351;28;20033;-58
2023/01/20 09:21:01;;;;;;;29.70;18.70;;;3.30;99.90;;;;;;5027711;28;20426;-58
2023/01/20 09:23:28;;;;;;;31.10;19.00;;;3.30;99.90;;;;;;5038124;28;20135;-58
2023/01/20 09:25:54;;;;;;;29.20;18.70;;;3.40;99.90;;;;;;5039336;28;20158;-58
2023/01/20 09:28:20;;;;;;;29.55;18.83;;;3.60;99.90;;;;;;5027938;28;20048;-58
2023/01/20 09:30:46;;;;;;;29.38;18.38;;;3.60;99.90;;;;;;5046674;28;20040;-58
2023/01/20 09:33:12;;;;;;;28.02;17.52;;;3.60;99.90;;;;;;5048008;28;20033;-58
2023/01/20 09:35:38;;;;;;;28.27;17.05;;;3.70;99.90;;;;;;5045811;28;20391;-58
2023/01/20 09:43:58;;;;;;;30.42;18.27;;;3.60;99.90;;;;;;5047177;28;20390;-58
2023/01/20 09:46:36;;;;;;;28.88;18.45;;;3.70;99.90;;;;;;5046588;28;20615;-58
2023/01/20 09:55:23;;;;;;;29.83;17.13;;;4.00;99.90;;;;;;5026997;28;20044;-58
2023/01/20 09:58:13;;;;;;;35.22;20.42;;;4.20;99.90;;;;;;5025980;28;20099;-58
2023/01/20 10:00:42;;;;;;;29.97;17.93;;;4.40;99.90;;;;;;5015682;28;20118;-58
2023/01/20 10:03:17;;;;;;;40.70;23.27;;;4.40;99.90;;;;;;5025018;28;20044;-59
2023/01/20 10:05:43;;;;;;;26.35;17.02;;;4.40;99.90;;;;;;5022543;28;20087;-59
2023/01/20 10:08:23;;;;;;;37.92;23.13;;;4.30;99.90;;;;;;5023499;28;20426;-59
2023/01/20 10:10:52;;;;;;;37.25;20.95;;;4.20;99.90;;;;;;5022056;28;20106;-59
2023/01/20 10:13:35;;;;;;;35.88;22.05;;;4.30;99.90;;;;;;5040668;28;20067;-59
2023/01/20 10:16:08;;;;;;;42.88;24.40;;;4.30;99.90;;;;;;5042653;28;20041;-59
2023/01/20 10:18:42;;;;;;;38.88;23.30;;;4.40;99.90;;;;;;5046505;28;20039;-59
2023/01/20 10:21:21;;;;;;;37.63;23.55;;;4.30;99.90;;;;;;5029136;28;20529;-59
2023/01/20 10:24:00;;;;;;;34.33;19.15;;;4.20;99.90;;;;;;5034496;28;20029;-59
2023/01/20 10:26:45;;;;;;;28.20;17.52;;;4.30;99.90;;;;;;5025826;28;20024;-59
2023/01/20 10:29:27;;;;;;;30.58;19.00;;;4.30;99.90;;;;;;5027591;28;20032;-59
2023/01/20 10:31:59;;;;;;;34.85;18.20;;;4.30;99.90;;;;;;5024666;28;20040;-59
2023/01/20 10:34:30;;;;;;;32.78;18.55;;;4.30;99.90;;;;;;5021147;28;20072;-59
2023/01/20 10:37:06;;;;;;;30.17;18.58;;;4.20;99.90;;;;;;5027331;28;20483;-59
2023/01/20 10:40:13;;;;;;;26.58;16.30;;;4.40;99.90;;;;;;5026708;28;20086;-59
2023/01/20 10:42:39;;;;;;;23.83;14.38;;;4.40;99.90;;;;;;4965829;28;20058;-59
2023/01/20 10:45:16;;;;;;;22.63;14.25;;;4.40;99.90;;;;;;4964975;28;20078;-59
2023/01/20 10:48:17;;;;;;;27.30;15.48;;;4.40;99.90;;;;;;4964547;28;20035;-59
2023/01/20 10:51:05;;;;;;;30.42;17.15;;;4.30;99.90;;;;;;4965416;28;20395;-59
2023/01/20 10:53:42;;;;;;;25.52;15.98;;;4.60;99.90;;;;;;4964896;28;20046;-59
2023/01/20 10:56:23;;;;;;;30.55;16.80;;;4.50;99.90;;;;;;4964937;28;20182;-59
2023/01/20 10:58:49;;;;;;;25.80;15.95;;;4.40;99.90;;;;;;4967831;28;20431;-59
2023/01/20 11:01:17;;;;;;;26.13;15.48;;;4.40;99.90;;;;;;4964752;28;20475;-59
2023/01/20 11:03:46;;;;;;;31.30;15.85;;;4.30;99.90;;;;;;4974771;28;20120;-59
2023/01/20 11:06:25;;;;;;;33.92;17.45;;;4.40;99.90;;;;;;4983358;28;20034;-59
2023/01/20 11:08:52;;;;;;;35.35;19.00;;;4.40;99.90;;;;;;4982133;28;20375;-59
2023/01/20 11:11:21;;;;;;;35.90;18.95;;;4.40;99.90;;;;;;4984806;28;20056;-59
2023/01/20 11:13:50;;;;;;;35.90;20.38;;;4.30;99.90;;;;;;5026036;28;20044;-59
2023/01/20 11:16:30;;;;;;;34.55;17.20;;;4.20;99.90;;;;;;5045673;28;20122;-59
2023/01/20 11:19:03;;;;;;;36.20;19.83;;;4.10;99.90;;;;;;5042411;28;20056;-59
2023/01/20 11:21:32;;;;;;;38.90;21.27;;;4.00;99.90;;;;;;5045605;28;20104;-59
2023/01/20 11:23:59;;;;;;;34.92;20.17;;;4.00;99.90;;;;;;5044879;28;20040;-59
2023/01/20 11:26:36;;;;;;;37.20;21.33;;;3.90;99.90;;;;;;5045342;28;20526;-59
2023/01/20 11:29:22;;;;;;;38.90;21.38;;;3.90;99.90;;;;;;5046276;28;20064;-59
2023/01/20 11:31:53;;;;;;;35.40;19.98;;;3.90;99.90;;;;;;5047979;28;20502;-59
2023/01/20 11:34:24;;;;;;;32.72;19.15;;;3.70;99.90;;;;;;5047577;28;20040;-59
2023/01/20 11:37:20;;;;;;;42.95;23.67;;;3.60;99.90;;;;;;5047016;28;20024;-59
2023/01/20 11:39:49;;;;;;;35.47;20.42;;;3.60;99.90;;;;;;5046039;28;20040;-59
2023/01/20 11:42:25;;;;;;;33.95;20.33;;;3.60;99.90;;;;;;5046639;28;20285;-59
2023/01/20 11:44:58;;;;;;;33.92;19.55;;;3.50;99.90;;;;;;5049008;28;20111;-59
2023/01/20 11:47:35;;;;;;;33.67;20.25;;;3.60;99.90;;;;;;5048570;28;20445;-59
2023/01/20 11:50:07;;;;;;;35.33;19.45;;;3.50;99.90;;;;;;5050143;28;20470;-58
2023/01/20 11:52:38;;;;;;;38.70;22.13;;;3.60;99.90;;;;;;5048424;28;20056;-58
2023/01/20 11:55:13;;;;;;;47.83;25.95;;;3.70;99.90;;;;;;5049495;28;20039;-59
2023/01/20 11:57:51;;;;;;;32.60;19.88;;;3.70;99.90;;;;;;5049717;28;20036;-58
2023/01/20 12:00:23;;;;;;;42.50;25.15;;;3.70;99.90;;;;;;5048676;28;20386;-59
2023/01/20 12:03:14;;;;;;;30.90;19.23;;;3.70;99.90;;;;;;5035355;28;20028;-58
2023/01/20 12:06:01;;;;;;;;;;;3.60;99.90;;;;;;5029541;28;20021;-59
2023/01/20 12:08:43;;;;;;;32.90;19.80;;;3.60;99.90;;;;;;5034590;28;20368;-58
2023/01/20 12:11:12;;;;;;;36.47;21.55;;;3.80;99.90;;;;;;5049280;28;20186;-58
2023/01/20 12:16:33;;;;;;;31.63;19.92;;;3.80;99.90;;;;;;5050144;28;20037;-58
2023/01/20 12:19:05;;;;;;;39.33;20.98;;;3.90;99.90;;;;;;5048415;28;20463;-58
2023/01/20 12:21:39;;;;;;;32.22;20.55;;;4.00;99.90;;;;;;5027899;28;20475;-58
2023/01/20 12:24:11;;;;;;;29.83;18.75;;;4.00;99.90;;;;;;5047790;28;20051;-58
2023/01/20 12:26:38;;;;;;;30.42;19.25;;;4.00;99.90;;;;;;5049520;28;20032;-58
2023/01/20 12:29:12;;;;;;;30.30;18.30;;;4.00;99.90;;;;;;5047958;28;20041;-58
2023/01/20 12:31:38;;;;;;;49.60;31.08;;;4.00;99.90;;;;;;5049362;28;20092;-58
2023/01/20 12:34:11;;;;;;;43.50;26.67;;;3.90;99.90;;;;;;5049692;28;20070;-59
2023/01/20 12:37:09;;;;;;;33.95;19.52;;;3.80;99.90;;;;;;5048595;28;20032;-58
2023/01/20 12:40:13;;;;;;;24.55;15.57;;;3.90;99.90;;;;;;5015889;28;20402;-58
2023/01/20 12:43:10;;;;;;;39.35;22.25;;;3.90;99.90;;;;;;5037485;28;20032;-58
2023/01/20 12:45:43;;;;;;;41.35;22.02;;;3.80;99.90;;;;;;5029676;28;20387;-58
2023/01/20 12:48:41;;;;;;;39.50;20.55;;;3.80;99.90;;;;;;5028369;28;20102;-58
2023/01/20 12:51:44;;;;;;;40.20;22.50;;;3.80;99.90;;;;;;5029746;28;20043;-58
2023/01/20 12:54:51;;;;;;;33.80;21.50;;;3.80;99.90;;;;;;5027628;28;20036;-58
2023/01/20 12:57:40;;;;;;;42.38;22.40;;;3.70;99.90;;;;;;5028542;28;20025;-58
2023/01/20 13:00:24;;;;;;;26.88;16.33;;;3.70;99.90;;;;;;5028769;28;20471;-58
2023/01/20 13:03:02;;;;;;;24.83;16.20;;;3.70;99.90;;;;;;5029323;28;20032;-58
2023/01/20 13:05:40;;;;;;;36.88;22.98;;;3.80;99.90;;;;;;5028843;28;20029;-58
2023/01/20 13:08:23;;;;;;;29.77;18.77;;;3.80;99.90;;;;;;5028783;28;20044;-58
2023/01/20 13:11:33;;;;;;;33.63;19.42;;;3.90;99.90;;;;;;5028499;28;20308;-58